Time;durP1;ratioP1;P1;durP2;ratioP2;P2;SDS_P1;SDS_P2;PMS_P1;PMS_P2;Temp;Humidity;BMP_temperature;BMP_pressure;BME280_temperature;BME280_humidity;BME280_pressure;Samples;Min_cycle;Max_cycle;Signal;HPM_P1;HPM_P2
2023/12/30 00:01:38;;;;;;;0.40;0.30;;;;;;;;;;5077421;28;20201;-79
2023/12/30 00:04:04;;;;;;;1.10;0.30;;;;;;;;;;5076518;28;20203;-79
2023/12/30 00:06:30;;;;;;;1.60;0.30;;;;;;;;;;5073426;28;20403;-79
2023/12/30 00:08:56;;;;;;;0.90;0.23;;;;;;;;;;5075965;28;20211;-81
2023/12/30 00:11:22;;;;;;;0.33;0.20;;;;;;;;;;5075961;28;20179;-79
2023/12/30 00:13:48;;;;;;;0.60;0.33;;;;;;;;;;5092833;28;20171;-79
2023/12/30 00:16:14;;;;;;;0.30;0.20;;;;;;;;;;5075107;28;20214;-78
2023/12/30 00:18:40;;;;;;;0.30;0.20;;;;;;;;;;5075528;28;20199;-79
2023/12/30 00:21:06;;;;;;;0.53;0.43;;;;;;;;;;5076079;28;20221;-78
2023/12/30 00:23:35;;;;;;;0.20;0.20;;;;;;;;;;5077390;28;20210;-79
2023/12/30 00:26:01;;;;;;;1.30;0.23;;;;;;;;;;5091170;28;20211;-78
2023/12/30 00:28:27;;;;;;;0.70;0.40;;;;;;;;;;5074932;28;20261;-79
2023/12/30 00:30:53;;;;;;;0.30;0.10;;;;;;;;;;5075591;28;20203;-79
2023/12/30 00:33:19;;;;;;;1.57;0.20;;;;;;;;;;5074395;28;20202;-78
2023/12/30 00:35:45;;;;;;;0.30;0.27;;;;;;;;;;5074604;28;20607;-79
2023/12/30 00:38:11;;;;;;;1.10;0.37;;;;;;;;;;5090809;28;20225;-80
2023/12/30 00:40:37;;;;;;;1.50;0.50;;;;;;;;;;5072049;28;20174;-79
2023/12/30 00:43:04;;;;;;;0.60;0.30;;;;;;;;;;5075447;28;20207;-78
2023/12/30 00:45:30;;;;;;;0.93;0.40;;;;;;;;;;5074802;28;20206;-79
2023/12/30 00:47:56;;;;;;;1.13;0.33;;;;;;;;;;5090148;28;20206;-78
2023/12/30 00:50:22;;;;;;;1.27;0.60;;;;;;;;;;5090258;28;20182;-79
2023/12/30 00:52:48;;;;;;;0.80;0.60;;;;;;;;;;5090874;28;20175;-79
2023/12/30 00:55:14;;;;;;;0.97;0.40;;;;;;;;;;5089899;28;20206;-79
2023/12/30 00:57:40;;;;;;;0.47;0.30;;;;;;;;;;5074619;28;20655;-78
2023/12/30 01:00:06;;;;;;;0.40;0.40;;;;;;;;;;5076291;28;20218;-78
2023/12/30 01:02:32;;;;;;;2.07;0.50;;;;;;;;;;5075900;28;20249;-79
2023/12/30 01:04:58;;;;;;;0.70;0.30;;;;;;;;;;5075487;28;20750;-78
2023/12/30 01:07:24;;;;;;;1.23;0.70;;;;;;;;;;5075987;28;20227;-79
2023/12/30 01:09:50;;;;;;;0.90;0.57;;;;;;;;;;5076487;28;20226;-79
2023/12/30 01:12:16;;;;;;;1.30;0.47;;;;;;;;;;5073955;28;20596;-78
2023/12/30 01:14:42;;;;;;;0.40;0.40;;;;;;;;;;5075756;28;20206;-79
2023/12/30 01:17:08;;;;;;;2.77;0.40;;;;;;;;;;5078358;28;20211;-79
2023/12/30 01:19:34;;;;;;;2.93;0.90;;;;;;;;;;5081473;28;20201;-78
2023/12/30 01:22:00;;;;;;;0.97;0.40;;;;;;;;;;5080741;28;20202;-78
2023/12/30 01:24:27;;;;;;;2.57;0.40;;;;;;;;;;5084896;28;20199;-79
2023/12/30 01:26:54;;;;;;;1.87;0.60;;;;;;;;;;5100203;28;20203;-78
2023/12/30 01:29:20;;;;;;;0.50;0.30;;;;;;;;;;5099676;28;20552;-79
2023/12/30 01:31:46;;;;;;;1.70;0.30;;;;;;;;;;5084967;28;20173;-78
2023/12/30 01:34:12;;;;;;;1.57;1.00;;;;;;;;;;5080660;28;20207;-78
2023/12/30 01:36:38;;;;;;;2.87;0.50;;;;;;;;;;5076345;28;20294;-79
2023/12/30 01:39:04;;;;;;;0.67;0.60;;;;;;;;;;5073809;28;20266;-78
2023/12/30 01:41:31;;;;;;;1.23;0.50;;;;;;;;;;5073921;28;20297;-78
2023/12/30 01:43:57;;;;;;;0.70;0.30;;;;;;;;;;5088848;28;20175;-78
2023/12/30 01:46:23;;;;;;;0.80;0.50;;;;;;;;;;5071530;28;20222;-79
2023/12/30 01:48:49;;;;;;;0.30;0.30;;;;;;;;;;5071971;28;20199;-78
2023/12/30 01:51:15;;;;;;;2.03;0.50;;;;;;;;;;5071735;28;20225;-78
2023/12/30 01:53:42;;;;;;;0.80;0.40;;;;;;;;;;5074332;28;20202;-79
2023/12/30 01:56:08;;;;;;;0.20;0.20;;;;;;;;;;5073783;28;20253;-76
2023/12/30 01:58:35;;;;;;;0.50;0.40;;;;;;;;;;5074467;28;20550;-78
2023/12/30 02:01:02;;;;;;;3.07;0.57;;;;;;;;;;5090537;28;20572;-78
2023/12/30 02:03:28;;;;;;;1.73;0.80;;;;;;;;;;5073666;28;20222;-78
2023/12/30 02:05:54;;;;;;;2.20;0.60;;;;;;;;;;5072234;28;20203;-78
2023/12/30 02:08:20;;;;;;;2.97;0.50;;;;;;;;;;5070143;28;20221;-78
2023/12/30 02:10:46;;;;;;;0.90;0.50;;;;;;;;;;5069271;28;20162;-78
2023/12/30 02:13:12;;;;;;;1.13;0.70;;;;;;;;;;5064406;28;20229;-77
2023/12/30 02:15:38;;;;;;;0.83;0.50;;;;;;;;;;5077843;28;20274;-78
2023/12/30 02:18:04;;;;;;;0.93;0.40;;;;;;;;;;5102931;28;20354;-79
2023/12/30 02:20:30;;;;;;;4.57;0.60;;;;;;;;;;5087873;28;20214;-78
2023/12/30 02:22:57;;;;;;;1.70;0.70;;;;;;;;;;5085985;28;20242;-78
2023/12/30 02:25:23;;;;;;;1.10;0.53;;;;;;;;;;5088227;28;20207;-78
2023/12/30 02:27:49;;;;;;;1.30;0.63;;;;;;;;;;5079196;28;20293;-79
2023/12/30 02:30:15;;;;;;;2.17;0.80;;;;;;;;;;5073739;28;20680;-78
2023/12/30 02:32:41;;;;;;;2.07;0.50;;;;;;;;;;5073318;28;20214;-78
2023/12/30 02:35:08;;;;;;;0.63;0.60;;;;;;;;;;5073044;28;20255;-78
2023/12/30 02:37:34;;;;;;;1.50;0.70;;;;;;;;;;5072640;28;20182;-78
2023/12/30 02:40:00;;;;;;;3.83;0.63;;;;;;;;;;5072524;28;20214;-78
2023/12/30 02:42:26;;;;;;;1.50;0.80;;;;;;;;;;5078673;28;20207;-78
2023/12/30 02:44:52;;;;;;;1.90;0.50;;;;;;;;;;5081039;28;20664;-78
2023/12/30 02:47:18;;;;;;;2.97;0.60;;;;;;;;;;5080791;28;20175;-78
2023/12/30 02:49:44;;;;;;;0.67;0.30;;;;;;;;;;5080898;28;20203;-78
2023/12/30 02:52:11;;;;;;;1.07;0.60;;;;;;;;;;5082864;28;20217;-78
2023/12/30 02:54:37;;;;;;;1.43;0.47;;;;;;;;;;5072040;28;20211;-79
2023/12/30 02:57:03;;;;;;;1.83;0.47;;;;;;;;;;5069481;28;20225;-79
2023/12/30 02:59:29;;;;;;;3.17;0.67;;;;;;;;;;5069290;28;20211;-79
2023/12/30 03:01:55;;;;;;;2.80;0.50;;;;;;;;;;5070483;28;20179;-78
2023/12/30 03:04:22;;;;;;;1.30;0.40;;;;;;;;;;5059544;28;20221;-78
2023/12/30 03:06:48;;;;;;;1.07;0.50;;;;;;;;;;5084324;28;20375;-79
2023/12/30 03:09:14;;;;;;;1.20;0.57;;;;;;;;;;5069307;28;20720;-78
2023/12/30 03:11:40;;;;;;;0.67;0.47;;;;;;;;;;5069211;28;20257;-78
2023/12/30 03:14:06;;;;;;;1.47;0.47;;;;;;;;;;5073029;28;20233;-79
2023/12/30 03:16:33;;;;;;;1.00;0.37;;;;;;;;;;5074099;28;20219;-79
2023/12/30 03:18:59;;;;;;;0.90;0.50;;;;;;;;;;5075712;28;20324;-78
2023/12/30 03:21:25;;;;;;;0.20;0.20;;;;;;;;;;5090227;28;20235;-79
2023/12/30 03:23:51;;;;;;;0.40;0.20;;;;;;;;;;5069980;28;20258;-78
2023/12/30 03:26:17;;;;;;;2.20;0.53;;;;;;;;;;5074326;28;20183;-78
2023/12/30 03:28:43;;;;;;;0.83;0.30;;;;;;;;;;5076309;28;20699;-78
2023/12/30 03:31:19;;;;;;;0.87;0.40;;;;;;;;;;5077275;28;20214;-78
2023/12/30 03:33:45;;;;;;;1.97;0.47;;;;;;;;;;5073576;28;20199;-79
2023/12/30 03:36:11;;;;;;;0.50;0.30;;;;;;;;;;5092846;28;20613;-79
2023/12/30 03:38:37;;;;;;;0.73;0.40;;;;;;;;;;5075834;28;20210;-78
2023/12/30 03:41:03;;;;;;;1.10;0.30;;;;;;;;;;5076817;28;20178;-78
2023/12/30 03:43:29;;;;;;;0.67;0.33;;;;;;;;;;5067956;28;20226;-79
2023/12/30 03:45:55;;;;;;;0.53;0.27;;;;;;;;;;5071945;28;20564;-78
2023/12/30 03:48:21;;;;;;;1.30;0.50;;;;;;;;;;5090411;28;20203;-79
2023/12/30 03:50:47;;;;;;;2.47;0.30;;;;;;;;;;5075309;28;20575;-79
2023/12/30 03:53:13;;;;;;;2.57;0.60;;;;;;;;;;5071731;28;20209;-79
2023/12/30 03:55:39;;;;;;;0.97;0.50;;;;;;;;;;5071391;28;20252;-78
2023/12/30 03:58:05;;;;;;;1.90;0.33;;;;;;;;;;5074325;28;20222;-79
2023/12/30 04:00:31;;;;;;;1.37;0.33;;;;;;;;;;5065954;28;20203;-79
2023/12/30 04:02:57;;;;;;;1.10;0.30;;;;;;;;;;5067598;28;20198;-79
2023/12/30 04:05:23;;;;;;;0.30;0.23;;;;;;;;;;5072868;28;20187;-79
2023/12/30 04:07:50;;;;;;;1.10;0.60;;;;;;;;;;5067651;28;20658;-79
2023/12/30 04:10:17;;;;;;;0.30;0.30;;;;;;;;;;5071376;28;20206;-78
2023/12/30 04:12:43;;;;;;;0.87;0.40;;;;;;;;;;5066496;28;20231;-78
2023/12/30 04:15:10;;;;;;;1.17;0.40;;;;;;;;;;5071948;28;20298;-79
2023/12/30 04:17:36;;;;;;;1.57;0.20;;;;;;;;;;5073160;28;20694;-78
2023/12/30 04:20:02;;;;;;;0.57;0.30;;;;;;;;;;5074114;28;20207;-79
2023/12/30 04:22:28;;;;;;;1.40;0.30;;;;;;;;;;5071046;28;20643;-78
2023/12/30 04:24:54;;;;;;;1.03;0.40;;;;;;;;;;5076396;28;20203;-79
2023/12/30 04:27:20;;;;;;;2.33;0.30;;;;;;;;;;5070244;28;20203;-78
2023/12/30 04:29:46;;;;;;;1.53;0.70;;;;;;;;;;5071191;28;20207;-80
2023/12/30 04:32:12;;;;;;;0.73;0.43;;;;;;;;;;5070610;28;20179;-78
2023/12/30 04:34:38;;;;;;;2.60;0.50;;;;;;;;;;5069158;28;20176;-79
2023/12/30 04:37:04;;;;;;;1.00;0.43;;;;;;;;;;5073260;28;20222;-78
2023/12/30 04:39:30;;;;;;;0.70;0.43;;;;;;;;;;5073967;28;20713;-79
2023/12/30 04:41:56;;;;;;;1.60;0.20;;;;;;;;;;5072252;28;20214;-79
2023/12/30 04:44:22;;;;;;;0.30;0.20;;;;;;;;;;5071193;28;20185;-78
2023/12/30 04:46:48;;;;;;;1.27;0.30;;;;;;;;;;5065461;28;20258;-79
2023/12/30 04:49:14;;;;;;;0.53;0.23;;;;;;;;;;5072330;28;20223;-77
2023/12/30 04:51:40;;;;;;;0.50;0.20;;;;;;;;;;5074193;28;20225;-78
2023/12/30 04:54:06;;;;;;;0.43;0.27;;;;;;;;;;5068911;28;20207;-78
2023/12/30 04:56:32;;;;;;;0.93;0.30;;;;;;;;;;5069322;28;20780;-78
2023/12/30 04:58:59;;;;;;;1.17;0.17;;;;;;;;;;5074358;28;20217;-78
2023/12/30 05:01:25;;;;;;;0.87;0.40;;;;;;;;;;5071297;28;20242;-78
2023/12/30 05:03:51;;;;;;;1.63;0.47;;;;;;;;;;5072781;28;20268;-78
2023/12/30 05:06:23;;;;;;;0.70;0.33;;;;;;;;;;5069629;28;20214;-75
2023/12/30 05:08:53;;;;;;;1.13;0.30;;;;;;;;;;5071246;28;20213;-78
2023/12/30 05:11:19;;;;;;;0.43;0.20;;;;;;;;;;5089773;28;20767;-78
2023/12/30 05:13:45;;;;;;;0.33;0.20;;;;;;;;;;5068824;28;20168;-79
2023/12/30 05:16:12;;;;;;;0.83;0.30;;;;;;;;;;5093037;28;20294;-78
2023/12/30 05:18:38;;;;;;;0.30;0.30;;;;;;;;;;5077498;28;20584;-78
2023/12/30 05:21:04;;;;;;;1.10;0.40;;;;;;;;;;5077483;28;20226;-78
2023/12/30 05:23:33;;;;;;;0.57;0.20;;;;;;;;;;5080945;28;20218;-79
2023/12/30 05:25:59;;;;;;;0.47;0.43;;;;;;;;;;5078059;28;20209;-78
2023/12/30 05:28:25;;;;;;;0.60;0.30;;;;;;;;;;5095813;28;20278;-78
2023/12/30 05:30:51;;;;;;;2.70;0.37;;;;;;;;;;5077636;28;20236;-78
2023/12/30 05:33:17;;;;;;;0.73;0.33;;;;;;;;;;5077651;28;20210;-78
2023/12/30 05:35:43;;;;;;;0.10;0.10;;;;;;;;;;5069397;28;20565;-79
2023/12/30 05:38:12;;;;;;;0.83;0.50;;;;;;;;;;5070712;28;20203;-79
2023/12/30 05:40:38;;;;;;;0.30;0.30;;;;;;;;;;5090388;28;20175;-77
2023/12/30 05:43:04;;;;;;;1.73;0.67;;;;;;;;;;5071002;28;20230;-78
2023/12/30 05:45:31;;;;;;;0.30;0.30;;;;;;;;;;5067396;28;20842;-79
2023/12/30 05:47:57;;;;;;;2.10;0.73;;;;;;;;;;5069529;28;20612;-77
2023/12/30 05:50:23;;;;;;;0.57;0.33;;;;;;;;;;5069841;28;20183;-78
2023/12/30 05:52:49;;;;;;;1.90;0.30;;;;;;;;;;5068960;28;20292;-77
2023/12/30 05:55:15;;;;;;;3.40;0.63;;;;;;;;;;5069630;28;20235;-77
2023/12/30 05:57:41;;;;;;;0.60;0.30;;;;;;;;;;5066181;28;20756;-77
2023/12/30 06:00:08;;;;;;;4.73;0.47;;;;;;;;;;5069026;28;20210;-78
2023/12/30 06:02:34;;;;;;;1.07;0.50;;;;;;;;;;5069990;28;20218;-78
2023/12/30 06:05:00;;;;;;;0.30;0.30;;;;;;;;;;5069853;28;20263;-77
2023/12/30 06:07:26;;;;;;;0.93;0.57;;;;;;;;;;5069383;28;20240;-77
2023/12/30 06:09:52;;;;;;;0.83;0.33;;;;;;;;;;5069266;28;20716;-77
2023/12/30 06:12:18;;;;;;;1.03;0.33;;;;;;;;;;5070919;28;20217;-77
2023/12/30 06:14:44;;;;;;;0.67;0.37;;;;;;;;;;5068588;28;20241;-78
2023/12/30 06:17:09;;;;;;;1.63;0.80;;;;;;;;;;5067991;28;20252;-78
2023/12/30 06:19:35;;;;;;;3.00;0.63;;;;;;;;;;5068780;28;20286;-78
2023/12/30 06:22:02;;;;;;;1.27;0.60;;;;;;;;;;5071230;28;20213;-78
2023/12/30 06:24:27;;;;;;;0.43;0.43;;;;;;;;;;5072982;28;20286;-78
2023/12/30 06:26:54;;;;;;;1.20;0.43;;;;;;;;;;5069019;28;20231;-78
2023/12/30 06:29:20;;;;;;;0.70;0.30;;;;;;;;;;5073308;28;20259;-77
2023/12/30 06:31:46;;;;;;;0.40;0.40;;;;;;;;;;5075337;28;20171;-79
2023/12/30 06:34:12;;;;;;;0.60;0.30;;;;;;;;;;5072385;28;20211;-78
2023/12/30 06:36:41;;;;;;;1.27;0.50;;;;;;;;;;5068951;28;20666;-78
2023/12/30 06:39:08;;;;;;;1.40;0.50;;;;;;;;;;5071938;28;20681;-78
2023/12/30 06:41:34;;;;;;;2.60;0.30;;;;;;;;;;5071209;28;20206;-78
2023/12/30 06:44:00;;;;;;;3.30;0.70;;;;;;;;;;5072948;28;20179;-78
2023/12/30 06:46:26;;;;;;;1.70;0.30;;;;;;;;;;5065311;28;20222;-77
2023/12/30 06:48:52;;;;;;;2.27;0.60;;;;;;;;;;5070848;28;20206;-78
2023/12/30 06:51:18;;;;;;;1.30;0.73;;;;;;;;;;5073438;28;20218;-77
2023/12/30 06:53:44;;;;;;;0.70;0.40;;;;;;;;;;5074956;28;20743;-78
2023/12/30 06:56:10;;;;;;;3.27;0.40;;;;;;;;;;5075728;28;20215;-78
2023/12/30 06:58:36;;;;;;;1.70;0.87;;;;;;;;;;5072827;28;20199;-79
2023/12/30 07:01:04;;;;;;;2.40;0.60;;;;;;;;;;5078039;28;20215;-78
2023/12/30 07:03:30;;;;;;;1.10;1.00;;;;;;;;;;5077008;28;20584;-78
2023/12/30 07:05:56;;;;;;;0.97;0.43;;;;;;;;;;5075654;28;20384;-78
2023/12/30 07:08:22;;;;;;;1.50;0.30;;;;;;;;;;5075487;28;20215;-77
2023/12/30 07:10:48;;;;;;;4.47;0.70;;;;;;;;;;5076816;28;20179;-78
2023/12/30 07:13:14;;;;;;;1.90;0.50;;;;;;;;;;5076571;28;20219;-77
2023/12/30 07:15:40;;;;;;;1.63;0.60;;;;;;;;;;5073945;28;20367;-78
2023/12/30 07:18:06;;;;;;;1.53;0.50;;;;;;;;;;5076224;28;20283;-78
2023/12/30 07:20:34;;;;;;;1.00;0.50;;;;;;;;;;5075065;28;20757;-79
2023/12/30 07:23:02;;;;;;;1.03;0.50;;;;;;;;;;5071328;28;20178;-78
2023/12/30 07:25:28;;;;;;;0.60;0.53;;;;;;;;;;5072565;28;20214;-79
2023/12/30 07:27:54;;;;;;;1.43;0.80;;;;;;;;;;5073554;28;20606;-78
2023/12/30 07:30:20;;;;;;;2.27;0.57;;;;;;;;;;5091347;28;20266;-78
2023/12/30 07:32:46;;;;;;;4.00;0.53;;;;;;;;;;5090485;28;20213;-78
2023/12/30 07:35:12;;;;;;;1.77;0.80;;;;;;;;;;5075454;28;20218;-79
2023/12/30 07:37:38;;;;;;;1.13;0.60;;;;;;;;;;5075939;28;20217;-78
2023/12/30 07:40:06;;;;;;;2.20;0.70;;;;;;;;;;5077124;28;20701;-78
2023/12/30 07:42:32;;;;;;;1.70;0.60;;;;;;;;;;5089917;28;20206;-78
2023/12/30 07:44:58;;;;;;;2.13;0.70;;;;;;;;;;5073236;28;20206;-78
2023/12/30 07:47:25;;;;;;;1.23;0.50;;;;;;;;;;5075929;28;20198;-77
2023/12/30 07:49:52;;;;;;;3.43;0.50;;;;;;;;;;5075656;28;20561;-78
2023/12/30 07:52:19;;;;;;;1.90;0.50;;;;;;;;;;5076696;28;20214;-78
2023/12/30 07:54:45;;;;;;;4.03;0.60;;;;;;;;;;5074863;28;20604;-78
2023/12/30 07:57:11;;;;;;;1.70;0.60;;;;;;;;;;5091897;28;20619;-79
2023/12/30 07:59:37;;;;;;;1.70;0.40;;;;;;;;;;5075391;28;20723;-78
2023/12/30 08:02:03;;;;;;;3.60;0.77;;;;;;;;;;5071046;28;20244;-80
2023/12/30 08:04:29;;;;;;;1.73;0.73;;;;;;;;;;5075443;28;20254;-78
2023/12/30 08:06:55;;;;;;;0.57;0.30;;;;;;;;;;5075325;28;20214;-78
2023/12/30 08:09:22;;;;;;;1.57;0.50;;;;;;;;;;5075263;28;20222;-78
2023/12/30 08:11:49;;;;;;;3.93;0.70;;;;;;;;;;5091906;28;20206;-79
2023/12/30 08:14:17;;;;;;;1.07;0.73;;;;;;;;;;5092012;28;20171;-78
2023/12/30 08:16:43;;;;;;;0.93;0.43;;;;;;;;;;5075984;28;21953;-79
2023/12/30 08:19:09;;;;;;;2.70;0.80;;;;;;;;;;5076688;28;20215;-79
2023/12/30 08:21:35;;;;;;;2.43;0.60;;;;;;;;;;5073713;28;20233;-79
2023/12/30 08:24:01;;;;;;;1.33;0.63;;;;;;;;;;5076207;28;20710;-79
2023/12/30 08:26:27;;;;;;;0.60;0.40;;;;;;;;;;5091043;28;20260;-79
2023/12/30 08:28:57;;;;;;;5.33;0.97;;;;;;;;;;5077041;28;20198;-79
2023/12/30 08:31:23;;;;;;;1.87;0.80;;;;;;;;;;5072206;28;20869;-79
2023/12/30 08:33:50;;;;;;;4.23;0.60;;;;;;;;;;5073658;28;20226;-79
2023/12/30 08:36:16;;;;;;;3.60;1.00;;;;;;;;;;5090076;28;20221;-78
2023/12/30 08:38:42;;;;;;;2.13;0.57;;;;;;;;;;5073799;28;20214;-79
2023/12/30 08:41:10;;;;;;;2.73;1.43;;;;;;;;;;5072729;28;20206;-79
2023/12/30 08:43:36;;;;;;;2.70;0.60;;;;;;;;;;5073193;28;20619;-79
2023/12/30 08:46:02;;;;;;;0.70;0.57;;;;;;;;;;5071794;28;20301;-79
2023/12/30 08:48:28;;;;;;;3.03;0.77;;;;;;;;;;5086869;28;20241;-79
2023/12/30 08:50:54;;;;;;;1.27;0.70;;;;;;;;;;5071786;28;20203;-77
2023/12/30 08:53:24;;;;;;;3.67;1.13;;;;;;;;;;5071047;28;20187;-78
2023/12/30 08:55:52;;;;;;;1.17;0.90;;;;;;;;;;5069344;28;20201;-79
2023/12/30 08:58:18;;;;;;;2.03;0.70;;;;;;;;;;5071212;28;20211;-78
2023/12/30 09:00:44;;;;;;;3.33;1.13;;;;;;;;;;5071491;28;20305;-78
2023/12/30 09:03:10;;;;;;;3.43;1.40;;;;;;;;;;5085542;28;20207;-79
2023/12/30 09:05:36;;;;;;;3.13;1.00;;;;;;;;;;5078894;28;20678;-79
2023/12/30 09:08:04;;;;;;;11.47;0.97;;;;;;;;;;5088643;28;20183;-78
2023/12/30 09:10:30;;;;;;;2.40;0.77;;;;;;;;;;5087764;28;20602;-79
2023/12/30 09:12:56;;;;;;;1.83;0.83;;;;;;;;;;5080795;28;20218;-79
2023/12/30 09:15:22;;;;;;;2.13;0.50;;;;;;;;;;5090382;28;20311;-79
2023/12/30 09:17:48;;;;;;;2.63;0.87;;;;;;;;;;5090178;28;20211;-79
2023/12/30 09:20:15;;;;;;;4.00;0.73;;;;;;;;;;5089520;28;20186;-79
2023/12/30 09:22:41;;;;;;;5.43;1.77;;;;;;;;;;5095525;28;20206;-80
2023/12/30 09:25:07;;;;;;;4.93;1.00;;;;;;;;;;5091227;28;20206;-79
2023/12/30 09:27:33;;;;;;;3.80;1.30;;;;;;;;;;5091570;28;20207;-76
2023/12/30 09:29:59;;;;;;;1.50;0.87;;;;;;;;;;5091040;28;20221;-79
2023/12/30 09:32:25;;;;;;;2.77;0.97;;;;;;;;;;5086248;28;20206;-79
2023/12/30 09:34:52;;;;;;;4.63;1.43;;;;;;;;;;5082022;28;20178;-79
2023/12/30 09:37:19;;;;;;;6.00;1.13;;;;;;;;;;5087608;28;20199;-78
2023/12/30 09:39:45;;;;;;;2.73;1.00;;;;;;;;;;5083833;28;20207;-79
2023/12/30 09:42:11;;;;;;;7.13;1.97;;;;;;;;;;5077549;28;20214;-79
2023/12/30 09:44:39;;;;;;;2.17;0.87;;;;;;;;;;5069335;28;20206;-79
2023/12/30 09:47:10;;;;;;;4.60;1.23;;;;;;;;;;5076105;28;20189;-80
2023/12/30 09:49:37;;;;;;;3.40;1.17;;;;;;;;;;5076305;28;20569;-79
2023/12/30 09:52:04;;;;;;;6.03;1.03;;;;;;;;;;5074829;28;20226;-79
2023/12/30 09:54:30;;;;;;;3.37;0.90;;;;;;;;;;5075595;28;20214;-79
2023/12/30 09:57:00;;;;;;;3.70;0.83;;;;;;;;;;5068519;28;20298;-79
2023/12/30 09:59:26;;;;;;;1.73;0.90;;;;;;;;;;5074314;28;20221;-79
2023/12/30 10:01:54;;;;;;;3.40;1.30;;;;;;;;;;5073426;28;20239;-79
2023/12/30 10:04:20;;;;;;;3.27;1.00;;;;;;;;;;5069316;28;20215;-78
2023/12/30 10:06:47;;;;;;;5.40;1.30;;;;;;;;;;5070112;28;20223;-79
2023/12/30 10:09:13;;;;;;;3.63;0.90;;;;;;;;;;5073036;28;20220;-79
2023/12/30 10:11:39;;;;;;;7.50;1.00;;;;;;;;;;5068529;28;20210;-79
2023/12/30 10:14:06;;;;;;;6.00;0.90;;;;;;;;;;5073759;28;20190;-79
2023/12/30 10:16:32;;;;;;;3.23;0.80;;;;;;;;;;5089616;28;20207;-80
2023/12/30 10:18:58;;;;;;;3.90;0.80;;;;;;;;;;5075805;28;20203;-78
2023/12/30 10:21:26;;;;;;;3.67;1.20;;;;;;;;;;5076056;28;20228;-79
2023/12/30 10:23:53;;;;;;;3.57;0.80;;;;;;;;;;5074342;28;20665;-79
2023/12/30 10:26:20;;;;;;;3.23;0.83;;;;;;;;;;5068286;28;20182;-79
2023/12/30 10:28:46;;;;;;;1.73;0.80;;;;;;;;;;5073725;28;20199;-79
2023/12/30 10:31:16;;;;;;;2.20;1.10;;;;;;;;;;5073814;28;20297;-78
2023/12/30 10:33:42;;;;;;;2.23;1.17;;;;;;;;;;5070950;28;20207;-78
2023/12/30 10:36:08;;;;;;;3.27;2.13;;;;;;;;;;5088230;28;20752;-78
2023/12/30 10:38:35;;;;;;;3.47;1.00;;;;;;;;;;5072851;28;20235;-78
2023/12/30 10:41:01;;;;;;;5.97;1.40;;;;;;;;;;5072162;28;20183;-79
2023/12/30 10:43:27;;;;;;;3.30;0.70;;;;;;;;;;5072733;28;20203;-78
2023/12/30 10:46:01;;;;;;;7.57;2.23;;;;;;;;;;5072694;28;20291;-79
2023/12/30 10:48:30;;;;;;;2.40;0.97;;;;;;;;;;5071893;28;20225;-78
2023/12/30 10:50:57;;;;;;;2.87;1.10;;;;;;;;;;5069218;28;20214;-79
2023/12/30 10:53:44;;;;;;;1.40;1.10;;;;;;;;;;5070936;28;20191;-78
2023/12/30 10:56:11;;;;;;;3.73;1.10;;;;;;;;;;5068131;28;20211;-79
2023/12/30 10:58:38;;;;;;;2.50;0.97;;;;;;;;;;5071490;28;20605;-79
2023/12/30 11:01:05;;;;;;;5.07;1.17;;;;;;;;;;5071973;28;20211;-78
2023/12/30 11:03:32;;;;;;;3.27;0.90;;;;;;;;;;5069106;28;20241;-79
2023/12/30 11:06:01;;;;;;;8.87;1.23;;;;;;;;;;5073412;28;20214;-79
2023/12/30 11:08:27;;;;;;;4.43;1.30;;;;;;;;;;5089089;28;20882;-79
2023/12/30 11:10:56;;;;;;;3.93;1.00;;;;;;;;;;5070360;28;20190;-79
2023/12/30 11:13:22;;;;;;;2.07;0.90;;;;;;;;;;5088749;28;20217;-79
2023/12/30 11:15:48;;;;;;;6.50;1.67;;;;;;;;;;5072934;28;20219;-79
2023/12/30 11:18:14;;;;;;;3.13;1.53;;;;;;;;;;5066762;28;20203;-79
2023/12/30 11:20:48;;;;;;;2.93;1.07;;;;;;;;;;5073602;28;20210;-79
2023/12/30 11:23:15;;;;;;;2.13;0.90;;;;;;;;;;5070682;28;20267;-79
2023/12/30 11:25:43;;;;;;;3.17;1.10;;;;;;;;;;5073414;28;20175;-79
2023/12/30 11:28:13;;;;;;;5.50;1.20;;;;;;;;;;5069466;28;20210;-79
2023/12/30 11:30:39;;;;;;;3.27;1.20;;;;;;;;;;5070396;28;20219;-79
2023/12/30 11:33:05;;;;;;;3.87;1.40;;;;;;;;;;5073353;28;20596;-79
2023/12/30 11:35:31;;;;;;;4.33;1.47;;;;;;;;;;5089013;28;20207;-79
2023/12/30 11:37:57;;;;;;;3.37;1.00;;;;;;;;;;5074975;28;20528;-80
2023/12/30 11:40:26;;;;;;;2.10;0.90;;;;;;;;;;5073329;28;20210;-79
2023/12/30 11:42:52;;;;;;;2.30;0.83;;;;;;;;;;5076911;28;20566;-79
2023/12/30 11:45:18;;;;;;;2.37;1.10;;;;;;;;;;5075302;28;20198;-79
2023/12/30 11:47:47;;;;;;;7.30;1.07;;;;;;;;;;5076524;28;20214;-78
2023/12/30 11:50:14;;;;;;;3.37;1.10;;;;;;;;;;5075902;28;20183;-79
2023/12/30 11:52:49;;;;;;;5.20;1.30;;;;;;;;;;5076699;28;20201;-79
2023/12/30 11:55:15;;;;;;;3.43;1.00;;;;;;;;;;5073562;28;20202;-79
2023/12/30 11:57:42;;;;;;;5.00;1.30;;;;;;;;;;5074676;28;20215;-79
2023/12/30 12:00:08;;;;;;;2.10;1.30;;;;;;;;;;5072104;28;20340;-78
2023/12/30 12:02:35;;;;;;;5.57;1.30;;;;;;;;;;5071751;28;20584;-79
2023/12/30 12:05:01;;;;;;;6.40;1.37;;;;;;;;;;5069164;28;20782;-78
2023/12/30 12:07:27;;;;;;;4.63;1.30;;;;;;;;;;5072184;28;20344;-79
2023/12/30 12:09:53;;;;;;;3.47;1.43;;;;;;;;;;5072124;28;20213;-79
2023/12/30 12:12:23;;;;;;;4.63;1.23;;;;;;;;;;5071235;28;20214;-79
2023/12/30 12:14:49;;;;;;;2.60;1.07;;;;;;;;;;5074883;28;20202;-79
2023/12/30 12:17:16;;;;;;;4.77;1.37;;;;;;;;;;5075745;28;20559;-79
2023/12/30 12:19:42;;;;;;;5.47;1.40;;;;;;;;;;5093215;28;20290;-78
2023/12/30 12:22:08;;;;;;;4.23;1.10;;;;;;;;;;5077414;28;20465;-79
2023/12/30 12:24:34;;;;;;;1.80;1.10;;;;;;;;;;5076429;28;20215;-78
2023/12/30 12:27:00;;;;;;;3.17;1.37;;;;;;;;;;5075413;28;20206;-79
2023/12/30 12:29:26;;;;;;;6.13;2.60;;;;;;;;;;5077694;28;20575;-80
2023/12/30 12:31:52;;;;;;;3.93;1.20;;;;;;;;;;5077638;28;20179;-79
2023/12/30 12:34:22;;;;;;;5.13;2.23;;;;;;;;;;5076689;28;20206;-80
2023/12/30 12:36:48;;;;;;;3.67;1.30;;;;;;;;;;5073234;28;20210;-80
2023/12/30 12:39:14;;;;;;;4.03;1.27;;;;;;;;;;5077120;28;20599;-80
2023/12/30 12:41:40;;;;;;;2.07;1.07;;;;;;;;;;5076324;28;20218;-79
2023/12/30 12:44:06;;;;;;;2.77;1.27;;;;;;;;;;5074901;28;20177;-79
2023/12/30 12:46:32;;;;;;;4.07;1.47;;;;;;;;;;5073270;28;20175;-79
2023/12/30 12:48:59;;;;;;;6.47;1.30;;;;;;;;;;5073673;28;20222;-80
2023/12/30 12:51:26;;;;;;;4.17;1.40;;;;;;;;;;5075158;28;20277;-79
2023/12/30 12:53:52;;;;;;;2.20;1.60;;;;;;;;;;5069659;28;20726;-79
2023/12/30 12:56:18;;;;;;;5.63;1.13;;;;;;;;;;5076925;28;20199;-78
2023/12/30 12:58:44;;;;;;;5.57;1.37;;;;;;;;;;5093001;28;20208;-80
2023/12/30 13:01:13;;;;;;;5.60;2.10;;;;;;;;;;5077202;28;20210;-80
2023/12/30 13:03:39;;;;;;;3.67;1.60;;;;;;;;;;5074245;28;20264;-80
2023/12/30 13:06:12;;;;;;;3.90;1.00;;;;;;;;;;5077444;28;20297;-79
2023/12/30 13:08:39;;;;;;;4.77;1.50;;;;;;;;;;5075826;28;20238;-80
2023/12/30 13:11:05;;;;;;;2.93;1.30;;;;;;;;;;5083499;28;20193;-79
2023/12/30 13:13:31;;;;;;;4.33;1.47;;;;;;;;;;5087825;28;20186;-79
2023/12/30 13:16:00;;;;;;;8.80;2.40;;;;;;;;;;5089144;28;20226;-78
2023/12/30 13:18:28;;;;;;;4.30;1.43;;;;;;;;;;5087236;28;20301;-79
2023/12/30 13:20:58;;;;;;;2.83;1.30;;;;;;;;;;5089976;28;20207;-81
2023/12/30 13:23:24;;;;;;;5.40;2.00;;;;;;;;;;5082316;28;20218;-79
2023/12/30 13:25:50;;;;;;;4.23;1.67;;;;;;;;;;5083290;28;20202;-79
2023/12/30 13:28:17;;;;;;;3.53;1.23;;;;;;;;;;5083601;28;20213;-79
2023/12/30 13:30:46;;;;;;;4.37;1.33;;;;;;;;;;5078710;28;20225;-79
2023/12/30 13:33:16;;;;;;;2.80;1.50;;;;;;;;;;5076902;28;20210;-79
2023/12/30 13:35:42;;;;;;;4.13;1.53;;;;;;;;;;5071612;28;20449;-79
2023/12/30 13:38:12;;;;;;;9.87;2.03;;;;;;;;;;5072947;28;20211;-79
2023/12/30 13:40:44;;;;;;;5.47;1.37;;;;;;;;;;5091201;28;20206;-79
2023/12/30 13:43:11;;;;;;;4.10;1.50;;;;;;;;;;5074168;28;20203;-78
2023/12/30 13:45:41;;;;;;;1.87;1.07;;;;;;;;;;5073958;28;20260;-78
2023/12/30 13:48:24;;;;;;;3.17;1.40;;;;;;;;;;5069807;28;20274;-78
2023/12/30 13:50:54;;;;;;;6.60;1.63;;;;;;;;;;5071302;28;20218;-78
2023/12/30 13:53:21;;;;;;;5.23;1.10;;;;;;;;;;5073132;28;20178;-78
2023/12/30 13:55:47;;;;;;;3.13;0.97;;;;;;;;;;5072972;28;20241;-79
2023/12/30 13:58:13;;;;;;;6.83;1.93;;;;;;;;;;5071137;28;20211;-78
2023/12/30 14:00:42;;;;;;;7.50;1.53;;;;;;;;;;5089326;28;20206;-79
2023/12/30 14:03:08;;;;;;;5.33;1.40;;;;;;;;;;5072954;28;20203;-78
2023/12/30 14:05:44;;;;;;;2.87;1.03;;;;;;;;;;5072678;28;20211;-75
2023/12/30 14:10:47;;;;;;;5.33;1.20;;;;;;;;;;5072377;28;20262;-78
2023/12/30 14:13:15;;;;;;;2.43;1.30;;;;;;;;;;5068448;28;20684;-78
2023/12/30 14:15:41;;;;;;;3.07;1.40;;;;;;;;;;5069105;28;20207;-78
2023/12/30 14:18:08;;;;;;;3.67;0.90;;;;;;;;;;5066032;28;20259;-78
2023/12/30 14:20:35;;;;;;;3.33;1.20;;;;;;;;;;5072354;28;20206;-78
2023/12/30 14:23:01;;;;;;;4.57;1.20;;;;;;;;;;5070347;28;20697;-79
2023/12/30 14:25:28;;;;;;;2.93;1.17;;;;;;;;;;5070283;28;20207;-78
2023/12/30 14:27:54;;;;;;;7.07;3.17;;;;;;;;;;5071077;28;20215;-79
2023/12/30 14:30:20;;;;;;;3.23;1.80;;;;;;;;;;5067541;28;20236;-78
2023/12/30 14:32:46;;;;;;;3.57;1.33;;;;;;;;;;5070700;28;20844;-79
2023/12/30 14:35:14;;;;;;;2.93;1.30;;;;;;;;;;5087485;28;20171;-78
2023/12/30 14:37:40;;;;;;;5.47;1.33;;;;;;;;;;5071652;28;20191;-78
2023/12/30 14:40:06;;;;;;;5.73;1.30;;;;;;;;;;5074283;28;20775;-80
2023/12/30 14:42:35;;;;;;;6.67;1.73;;;;;;;;;;5096394;28;20563;-80